Terminal Aerodrome Forecast
Issued by NWS

Current Version | Previous Version | Graphics & Text | Print | Product List | Glossary On
Versions: 1 2 3 4 5 6 7 8 9 10 11 12 13 14 15 16
000
FTUS41 KPBZ 151700
TAFMGW
TAF
KMGW 151739Z 1518/1618 31008KT 4SM -RASN OVC010
      TEMPO 1518/1520 OVC008
     FM152100 31010KT P6SM VCSH BKN025
     FM160200 32003KT P6SM BKN035
     FM160600 VRB03KT P6SM SKC=

USA.gov is the U.S. government's official web portal to all federal, state and local government web resources and services.